sensor_id;sensor_type;location;lat;lon;timestamp;P1;durP1;ratioP1;P2;durP2;ratioP2
77495;SDS011;66600;48.378;9.948;2024-02-14T00:00:02;10.38;;;6.97;;
77495;SDS011;66600;48.378;9.948;2024-02-14T00:01:01;11.52;;;7.57;;
77495;SDS011;66600;48.378;9.948;2024-02-14T00:01:33;10.05;;;6.75;;
77495;SDS011;66600;48.378;9.948;2024-02-14T00:02:12;10.50;;;7.38;;
77495;SDS011;66600;48.378;9.948;2024-02-14T00:02:44;11.05;;;7.85;;
77495;SDS011;66600;48.378;9.948;2024-02-14T00:03:15;11.70;;;7.28;;
77495;SDS011;66600;48.378;9.948;2024-02-14T00:03:48;13.93;;;7.32;;
77495;SDS011;66600;48.378;9.948;2024-02-14T00:04:19;11.95;;;7.45;;
77495;SDS011;66600;48.378;9.948;2024-02-14T00:04:57;14.30;;;8.00;;
77495;SDS011;66600;48.378;9.948;2024-02-14T00:05:29;11.77;;;7.30;;
77495;SDS011;66600;48.378;9.948;2024-02-14T00:06:03;11.13;;;7.40;;
77495;SDS011;66600;48.378;9.948;2024-02-14T00:06:39;10.95;;;7.18;;
77495;SDS011;66600;48.378;9.948;2024-02-14T00:07:10;11.25;;;7.78;;
77495;SDS011;66600;48.378;9.948;2024-02-14T00:07:48;12.63;;;7.63;;
77495;SDS011;66600;48.378;9.948;2024-02-14T00:08:20;11.70;;;7.43;;
77495;SDS011;66600;48.378;9.948;2024-02-14T00:08:50;11.57;;;7.72;;
77495;SDS011;66600;48.378;9.948;2024-02-14T00:09:22;14.70;;;8.50;;
77495;SDS011;66600;48.378;9.948;2024-02-14T00:09:53;13.63;;;8.43;;
77495;SDS011;66600;48.378;9.948;2024-02-14T00:10:24;12.15;;;8.30;;
77495;SDS011;66600;48.378;9.948;2024-02-14T00:10:54;11.30;;;7.78;;
77495;SDS011;66600;48.378;9.948;2024-02-14T00:11:24;12.25;;;8.05;;
77495;SDS011;66600;48.378;9.948;2024-02-14T00:11:55;14.02;;;9.10;;
77495;SDS011;66600;48.378;9.948;2024-02-14T00:12:25;12.98;;;8.25;;
77495;SDS011;66600;48.378;9.948;2024-02-14T00:12:55;11.90;;;7.68;;
77495;SDS011;66600;48.378;9.948;2024-02-14T00:13:26;11.13;;;7.90;;
77495;SDS011;66600;48.378;9.948;2024-02-14T00:13:56;11.77;;;8.50;;
77495;SDS011;66600;48.378;9.948;2024-02-14T00:14:26;12.65;;;7.50;;
77495;SDS011;66600;48.378;9.948;2024-02-14T00:14:57;13.07;;;8.00;;
77495;SDS011;66600;48.378;9.948;2024-02-14T00:15:28;11.85;;;7.85;;
77495;SDS011;66600;48.378;9.948;2024-02-14T00:15:58;10.43;;;7.28;;
77495;SDS011;66600;48.378;9.948;2024-02-14T00:16:28;12.95;;;8.25;;
77495;SDS011;66600;48.378;9.948;2024-02-14T00:17:01;9.93;;;7.80;;
77495;SDS011;66600;48.378;9.948;2024-02-14T00:17:32;11.98;;;8.10;;
77495;SDS011;66600;48.378;9.948;2024-02-14T00:18:04;11.50;;;7.82;;
77495;SDS011;66600;48.378;9.948;2024-02-14T00:18:34;9.88;;;7.20;;
77495;SDS011;66600;48.378;9.948;2024-02-14T00:19:05;12.85;;;7.90;;
77495;SDS011;66600;48.378;9.948;2024-02-14T00:19:35;10.68;;;7.53;;
77495;SDS011;66600;48.378;9.948;2024-02-14T00:20:06;12.82;;;8.00;;
77495;SDS011;66600;48.378;9.948;2024-02-14T00:20:37;9.60;;;7.43;;
77495;SDS011;66600;48.378;9.948;2024-02-14T00:21:09;11.18;;;7.55;;
77495;SDS011;66600;48.378;9.948;2024-02-14T00:21:39;11.77;;;7.60;;
77495;SDS011;66600;48.378;9.948;2024-02-14T00:22:10;10.90;;;7.57;;
77495;SDS011;66600;48.378;9.948;2024-02-14T00:22:40;14.00;;;8.50;;
77495;SDS011;66600;48.378;9.948;2024-02-14T00:23:10;12.23;;;8.05;;
77495;SDS011;66600;48.378;9.948;2024-02-14T00:23:41;11.55;;;8.05;;
77495;SDS011;66600;48.378;9.948;2024-02-14T00:24:11;13.82;;;8.50;;
77495;SDS011;66600;48.378;9.948;2024-02-14T00:24:42;12.38;;;8.90;;
77495;SDS011;66600;48.378;9.948;2024-02-14T00:25:13;11.20;;;8.27;;
77495;SDS011;66600;48.378;9.948;2024-02-14T00:25:43;14.48;;;8.48;;
77495;SDS011;66600;48.378;9.948;2024-02-14T00:26:14;14.10;;;8.65;;
77495;SDS011;66600;48.378;9.948;2024-02-14T00:26:44;12.85;;;8.15;;
77495;SDS011;66600;48.378;9.948;2024-02-14T00:27:16;12.25;;;8.18;;
77495;SDS011;66600;48.378;9.948;2024-02-14T00:27:47;10.75;;;8.45;;
77495;SDS011;66600;48.378;9.948;2024-02-14T00:28:17;14.48;;;8.90;;
77495;SDS011;66600;48.378;9.948;2024-02-14T00:28:48;11.23;;;7.88;;
77495;SDS011;66600;48.378;9.948;2024-02-14T00:29:18;11.32;;;8.52;;
77495;SDS011;66600;48.378;9.948;2024-02-14T00:29:48;11.85;;;7.57;;
77495;SDS011;66600;48.378;9.948;2024-02-14T00:30:19;12.10;;;8.13;;
77495;SDS011;66600;48.378;9.948;2024-02-14T00:30:49;11.75;;;8.20;;
77495;SDS011;66600;48.378;9.948;2024-02-14T00:31:20;11.38;;;7.97;;
77495;SDS011;66600;48.378;9.948;2024-02-14T00:31:50;11.60;;;7.65;;
77495;SDS011;66600;48.378;9.948;2024-02-14T00:32:21;11.45;;;8.23;;
77495;SDS011;66600;48.378;9.948;2024-02-14T00:32:51;13.77;;;8.60;;
77495;SDS011;66600;48.378;9.948;2024-02-14T00:33:22;12.45;;;8.38;;
77495;SDS011;66600;48.378;9.948;2024-02-14T00:33:52;14.02;;;8.43;;
77495;SDS011;66600;48.378;9.948;2024-02-14T00:34:22;15.40;;;8.35;;
77495;SDS011;66600;48.378;9.948;2024-02-14T00:34:53;11.18;;;8.10;;
77495;SDS011;66600;48.378;9.948;2024-02-14T00:35:24;12.85;;;8.10;;
77495;SDS011;66600;48.378;9.948;2024-02-14T00:35:54;12.27;;;7.70;;
77495;SDS011;66600;48.378;9.948;2024-02-14T00:36:25;12.55;;;7.80;;
77495;SDS011;66600;48.378;9.948;2024-02-14T00:36:56;12.50;;;6.93;;
77495;SDS011;66600;48.378;9.948;2024-02-14T00:37:26;10.13;;;6.38;;
77495;SDS011;66600;48.378;9.948;2024-02-14T00:37:57;10.45;;;6.47;;
77495;SDS011;66600;48.378;9.948;2024-02-14T00:38:27;9.65;;;6.40;;
77495;SDS011;66600;48.378;9.948;2024-02-14T00:38:57;11.95;;;6.50;;
77495;SDS011;66600;48.378;9.948;2024-02-14T00:39:28;9.55;;;5.90;;
77495;SDS011;66600;48.378;9.948;2024-02-14T00:39:58;12.05;;;6.50;;
77495;SDS011;66600;48.378;9.948;2024-02-14T00:40:29;12.40;;;6.35;;
77495;SDS011;66600;48.378;9.948;2024-02-14T00:40:59;10.73;;;6.20;;
77495;SDS011;66600;48.378;9.948;2024-02-14T00:41:30;9.32;;;6.43;;
77495;SDS011;66600;48.378;9.948;2024-02-14T00:42:00;9.40;;;6.43;;
77495;SDS011;66600;48.378;9.948;2024-02-14T00:42:30;17.45;;;6.72;;
77495;SDS011;66600;48.378;9.948;2024-02-14T00:43:01;10.50;;;6.35;;
77495;SDS011;66600;48.378;9.948;2024-02-14T00:43:31;10.40;;;6.10;;
77495;SDS011;66600;48.378;9.948;2024-02-14T00:44:01;9.63;;;5.80;;
77495;SDS011;66600;48.378;9.948;2024-02-14T00:44:33;7.93;;;5.65;;
77495;SDS011;66600;48.378;9.948;2024-02-14T00:45:03;8.80;;;5.97;;
77495;SDS011;66600;48.378;9.948;2024-02-14T00:45:35;9.68;;;6.03;;
77495;SDS011;66600;48.378;9.948;2024-02-14T00:46:08;9.00;;;5.32;;
77495;SDS011;66600;48.378;9.948;2024-02-14T00:46:38;8.73;;;5.28;;
77495;SDS011;66600;48.378;9.948;2024-02-14T00:47:08;8.68;;;5.80;;
77495;SDS011;66600;48.378;9.948;2024-02-14T00:47:39;8.20;;;6.05;;
77495;SDS011;66600;48.378;9.948;2024-02-14T00:48:09;8.52;;;5.32;;
77495;SDS011;66600;48.378;9.948;2024-02-14T00:48:39;10.90;;;5.68;;
77495;SDS011;66600;48.378;9.948;2024-02-14T00:49:10;10.23;;;6.45;;
77495;SDS011;66600;48.378;9.948;2024-02-14T00:49:41;9.68;;;5.53;;
77495;SDS011;66600;48.378;9.948;2024-02-14T00:50:11;9.18;;;6.40;;
77495;SDS011;66600;48.378;9.948;2024-02-14T00:50:43;8.63;;;5.95;;
77495;SDS011;66600;48.378;9.948;2024-02-14T00:51:15;10.30;;;5.68;;
77495;SDS011;66600;48.378;9.948;2024-02-14T00:51:45;7.78;;;5.60;;
77495;SDS011;66600;48.378;9.948;2024-02-14T00:52:15;9.20;;;6.22;;
77495;SDS011;66600;48.378;9.948;2024-02-14T00:52:46;9.38;;;5.53;;
77495;SDS011;66600;48.378;9.948;2024-02-14T00:53:17;10.02;;;5.95;;
77495;SDS011;66600;48.378;9.948;2024-02-14T00:53:47;8.48;;;5.90;;
77495;SDS011;66600;48.378;9.948;2024-02-14T00:54:17;11.35;;;6.35;;
77495;SDS011;66600;48.378;9.948;2024-02-14T00:54:48;9.65;;;6.22;;
77495;SDS011;66600;48.378;9.948;2024-02-14T00:55:18;11.23;;;5.88;;
77495;SDS011;66600;48.378;9.948;2024-02-14T00:55:48;8.20;;;5.45;;
77495;SDS011;66600;48.378;9.948;2024-02-14T00:56:19;9.85;;;5.85;;
77495;SDS011;66600;48.378;9.948;2024-02-14T00:56:49;7.65;;;5.65;;
77495;SDS011;66600;48.378;9.948;2024-02-14T00:57:19;11.20;;;6.40;;
77495;SDS011;66600;48.378;9.948;2024-02-14T00:57:50;9.15;;;6.65;;
77495;SDS011;66600;48.378;9.948;2024-02-14T00:58:21;11.43;;;6.63;;
77495;SDS011;66600;48.378;9.948;2024-02-14T00:58:51;9.65;;;6.53;;
77495;SDS011;66600;48.378;9.948;2024-02-14T00:59:21;9.82;;;6.55;;
77495;SDS011;66600;48.378;9.948;2024-02-14T00:59:52;9.73;;;6.38;;
77495;SDS011;66600;48.378;9.948;2024-02-14T01:00:23;9.10;;;6.22;;
77495;SDS011;66600;48.378;9.948;2024-02-14T01:00:53;11.00;;;6.72;;
77495;SDS011;66600;48.378;9.948;2024-02-14T01:01:23;10.98;;;6.97;;
77495;SDS011;66600;48.378;9.948;2024-02-14T01:01:54;10.10;;;6.85;;
77495;SDS011;66600;48.378;9.948;2024-02-14T01:02:24;12.30;;;7.20;;
77495;SDS011;66600;48.378;9.948;2024-02-14T01:02:56;12.13;;;7.80;;
77495;SDS011;66600;48.378;9.948;2024-02-14T01:03:27;11.48;;;7.38;;
77495;SDS011;66600;48.378;9.948;2024-02-14T01:03:58;10.45;;;7.85;;
77495;SDS011;66600;48.378;9.948;2024-02-14T01:04:28;10.32;;;7.25;;
77495;SDS011;66600;48.378;9.948;2024-02-14T01:04:58;12.38;;;7.95;;
77495;SDS011;66600;48.378;9.948;2024-02-14T01:05:29;11.27;;;7.38;;
77495;SDS011;66600;48.378;9.948;2024-02-14T01:05:59;11.35;;;7.57;;
77495;SDS011;66600;48.378;9.948;2024-02-14T01:06:30;14.48;;;8.02;;
77495;SDS011;66600;48.378;9.948;2024-02-14T01:07:00;11.57;;;7.68;;
77495;SDS011;66600;48.378;9.948;2024-02-14T01:07:30;13.70;;;7.63;;
77495;SDS011;66600;48.378;9.948;2024-02-14T01:08:01;10.85;;;7.70;;
77495;SDS011;66600;48.378;9.948;2024-02-14T01:08:32;13.32;;;8.35;;
77495;SDS011;66600;48.378;9.948;2024-02-14T01:09:03;10.65;;;7.68;;
77495;SDS011;66600;48.378;9.948;2024-02-14T01:09:34;12.10;;;8.02;;
77495;SDS011;66600;48.378;9.948;2024-02-14T01:10:04;12.40;;;8.32;;
77495;SDS011;66600;48.378;9.948;2024-02-14T01:10:35;11.57;;;8.15;;
77495;SDS011;66600;48.378;9.948;2024-02-14T01:11:05;12.60;;;8.10;;
77495;SDS011;66600;48.378;9.948;2024-02-14T01:11:36;10.48;;;7.47;;
77495;SDS011;66600;48.378;9.948;2024-02-14T01:12:08;13.73;;;8.35;;
77495;SDS011;66600;48.378;9.948;2024-02-14T01:12:38;11.88;;;7.63;;
77495;SDS011;66600;48.378;9.948;2024-02-14T01:13:10;13.10;;;7.97;;
77495;SDS011;66600;48.378;9.948;2024-02-14T01:13:40;12.45;;;8.00;;
77495;SDS011;66600;48.378;9.948;2024-02-14T01:14:11;14.70;;;8.60;;
77495;SDS011;66600;48.378;9.948;2024-02-14T01:14:44;11.38;;;8.38;;
77495;SDS011;66600;48.378;9.948;2024-02-14T01:15:15;11.70;;;8.32;;
77495;SDS011;66600;48.378;9.948;2024-02-14T01:15:45;12.13;;;8.18;;
77495;SDS011;66600;48.378;9.948;2024-02-14T01:16:15;18.17;;;8.27;;
77495;SDS011;66600;48.378;9.948;2024-02-14T01:16:46;13.18;;;8.27;;
77495;SDS011;66600;48.378;9.948;2024-02-14T01:17:16;11.65;;;7.35;;
77495;SDS011;66600;48.378;9.948;2024-02-14T01:17:47;12.35;;;7.50;;
77495;SDS011;66600;48.378;9.948;2024-02-14T01:18:17;10.73;;;7.93;;
77495;SDS011;66600;48.378;9.948;2024-02-14T01:18:48;10.30;;;7.45;;
77495;SDS011;66600;48.378;9.948;2024-02-14T01:19:18;11.05;;;8.00;;
77495;SDS011;66600;48.378;9.948;2024-02-14T01:19:49;11.32;;;7.30;;
77495;SDS011;66600;48.378;9.948;2024-02-14T01:20:20;11.45;;;8.00;;
77495;SDS011;66600;48.378;9.948;2024-02-14T01:20:50;11.35;;;7.30;;
77495;SDS011;66600;48.378;9.948;2024-02-14T01:21:20;12.88;;;7.60;;
77495;SDS011;66600;48.378;9.948;2024-02-14T01:21:51;12.07;;;7.50;;
77495;SDS011;66600;48.378;9.948;2024-02-14T01:22:21;10.85;;;7.40;;
77495;SDS011;66600;48.378;9.948;2024-02-14T01:22:51;12.70;;;7.38;;
77495;SDS011;66600;48.378;9.948;2024-02-14T01:23:22;13.43;;;7.57;;
77495;SDS011;66600;48.378;9.948;2024-02-14T01:23:53;11.45;;;6.95;;
77495;SDS011;66600;48.378;9.948;2024-02-14T01:24:23;9.85;;;7.07;;
77495;SDS011;66600;48.378;9.948;2024-02-14T01:24:56;10.57;;;7.30;;
77495;SDS011;66600;48.378;9.948;2024-02-14T01:25:28;9.63;;;7.28;;
77495;SDS011;66600;48.378;9.948;2024-02-14T01:25:58;9.93;;;6.45;;
77495;SDS011;66600;48.378;9.948;2024-02-14T01:26:29;10.82;;;6.75;;
77495;SDS011;66600;48.378;9.948;2024-02-14T01:26:59;9.93;;;6.95;;
77495;SDS011;66600;48.378;9.948;2024-02-14T01:27:29;13.52;;;7.47;;
77495;SDS011;66600;48.378;9.948;2024-02-14T01:28:00;10.60;;;7.20;;
77495;SDS011;66600;48.378;9.948;2024-02-14T01:28:30;11.70;;;7.30;;
77495;SDS011;66600;48.378;9.948;2024-02-14T01:29:01;10.57;;;6.97;;
77495;SDS011;66600;48.378;9.948;2024-02-14T01:29:32;10.45;;;6.93;;
77495;SDS011;66600;48.378;9.948;2024-02-14T01:30:02;10.27;;;7.10;;
77495;SDS011;66600;48.378;9.948;2024-02-14T01:30:35;10.88;;;7.35;;
77495;SDS011;66600;48.378;9.948;2024-02-14T01:31:06;9.13;;;6.80;;
77495;SDS011;66600;48.378;9.948;2024-02-14T01:31:36;10.98;;;7.38;;
77495;SDS011;66600;48.378;9.948;2024-02-14T01:32:07;12.68;;;7.25;;
77495;SDS011;66600;48.378;9.948;2024-02-14T01:32:37;10.15;;;6.70;;
77495;SDS011;66600;48.378;9.948;2024-02-14T01:33:08;10.85;;;7.63;;
77495;SDS011;66600;48.378;9.948;2024-02-14T01:33:39;11.52;;;7.32;;
77495;SDS011;66600;48.378;9.948;2024-02-14T01:34:10;12.10;;;7.35;;
77495;SDS011;66600;48.378;9.948;2024-02-14T01:34:40;11.27;;;7.53;;
77495;SDS011;66600;48.378;9.948;2024-02-14T01:35:12;13.98;;;7.65;;
77495;SDS011;66600;48.378;9.948;2024-02-14T01:35:43;11.95;;;7.28;;
77495;SDS011;66600;48.378;9.948;2024-02-14T01:36:13;11.18;;;7.50;;
77495;SDS011;66600;48.378;9.948;2024-02-14T01:36:44;10.68;;;6.57;;
77495;SDS011;66600;48.378;9.948;2024-02-14T01:37:14;11.55;;;7.38;;
77495;SDS011;66600;48.378;9.948;2024-02-14T01:37:44;9.18;;;6.68;;
77495;SDS011;66600;48.378;9.948;2024-02-14T01:38:15;10.13;;;6.50;;
77495;SDS011;66600;48.378;9.948;2024-02-14T01:38:45;10.57;;;6.55;;
77495;SDS011;66600;48.378;9.948;2024-02-14T01:39:15;9.23;;;6.00;;
77495;SDS011;66600;48.378;9.948;2024-02-14T01:39:47;10.23;;;6.57;;
77495;SDS011;66600;48.378;9.948;2024-02-14T01:40:18;11.05;;;6.63;;
77495;SDS011;66600;48.378;9.948;2024-02-14T01:40:48;10.55;;;6.80;;
77495;SDS011;66600;48.378;9.948;2024-02-14T01:41:19;9.77;;;6.28;;
77495;SDS011;66600;48.378;9.948;2024-02-14T01:41:51;9.68;;;6.40;;
77495;SDS011;66600;48.378;9.948;2024-02-14T01:42:21;8.43;;;6.00;;
77495;SDS011;66600;48.378;9.948;2024-02-14T01:42:52;9.98;;;6.30;;
77495;SDS011;66600;48.378;9.948;2024-02-14T01:43:22;9.93;;;6.13;;
77495;SDS011;66600;48.378;9.948;2024-02-14T01:43:52;9.82;;;6.30;;
77495;SDS011;66600;48.378;9.948;2024-02-14T01:44:23;8.70;;;6.25;;
77495;SDS011;66600;48.378;9.948;2024-02-14T01:44:53;10.18;;;6.28;;
77495;SDS011;66600;48.378;9.948;2024-02-14T01:45:26;8.32;;;6.00;;
77495;SDS011;66600;48.378;9.948;2024-02-14T01:46:02;8.98;;;6.25;;
77495;SDS011;66600;48.378;9.948;2024-02-14T01:46:35;9.07;;;5.88;;
77495;SDS011;66600;48.378;9.948;2024-02-14T01:47:05;9.50;;;5.80;;
77495;SDS011;66600;48.378;9.948;2024-02-14T01:47:36;12.05;;;6.90;;
77495;SDS011;66600;48.378;9.948;2024-02-14T01:48:07;8.40;;;6.00;;
77495;SDS011;66600;48.378;9.948;2024-02-14T01:48:39;7.90;;;5.85;;
77495;SDS011;66600;48.378;9.948;2024-02-14T01:49:11;10.18;;;5.75;;
77495;SDS011;66600;48.378;9.948;2024-02-14T01:49:42;10.00;;;5.78;;
77495;SDS011;66600;48.378;9.948;2024-02-14T01:50:14;8.52;;;5.60;;
77495;SDS011;66600;48.378;9.948;2024-02-14T01:50:44;8.90;;;6.22;;
77495;SDS011;66600;48.378;9.948;2024-02-14T01:51:15;8.63;;;5.53;;
77495;SDS011;66600;48.378;9.948;2024-02-14T01:51:50;9.57;;;6.07;;
77495;SDS011;66600;48.378;9.948;2024-02-14T01:52:20;8.90;;;5.93;;
77495;SDS011;66600;48.378;9.948;2024-02-14T01:52:52;8.88;;;5.82;;
77495;SDS011;66600;48.378;9.948;2024-02-14T01:53:22;10.60;;;6.43;;
77495;SDS011;66600;48.378;9.948;2024-02-14T01:53:55;9.07;;;5.88;;
77495;SDS011;66600;48.378;9.948;2024-02-14T01:54:26;9.15;;;5.68;;
77495;SDS011;66600;48.378;9.948;2024-02-14T01:54:57;12.07;;;5.80;;
77495;SDS011;66600;48.378;9.948;2024-02-14T01:55:28;7.88;;;5.78;;
77495;SDS011;66600;48.378;9.948;2024-02-14T01:55:59;8.57;;;5.88;;
77495;SDS011;66600;48.378;9.948;2024-02-14T01:56:30;9.75;;;5.75;;
77495;SDS011;66600;48.378;9.948;2024-02-14T01:57:01;10.45;;;6.10;;
77495;SDS011;66600;48.378;9.948;2024-02-14T01:57:33;9.23;;;5.80;;
77495;SDS011;66600;48.378;9.948;2024-02-14T01:58:04;8.60;;;5.75;;
77495;SDS011;66600;48.378;9.948;2024-02-14T01:58:35;8.23;;;5.38;;
77495;SDS011;66600;48.378;9.948;2024-02-14T01:59:07;7.80;;;5.32;;
77495;SDS011;66600;48.378;9.948;2024-02-14T01:59:39;9.43;;;5.95;;
77495;SDS011;66600;48.378;9.948;2024-02-14T02:00:10;9.18;;;5.63;;
77495;SDS011;66600;48.378;9.948;2024-02-14T02:00:45;9.45;;;5.65;;
77495;SDS011;66600;48.378;9.948;2024-02-14T02:01:16;8.90;;;5.97;;
77495;SDS011;66600;48.378;9.948;2024-02-14T02:01:47;11.65;;;5.97;;
77495;SDS011;66600;48.378;9.948;2024-02-14T02:02:18;8.48;;;5.95;;
77495;SDS011;66600;48.378;9.948;2024-02-14T02:02:49;9.52;;;5.63;;
77495;SDS011;66600;48.378;9.948;2024-02-14T02:03:19;10.80;;;6.05;;
77495;SDS011;66600;48.378;9.948;2024-02-14T02:03:50;8.70;;;5.80;;
77495;SDS011;66600;48.378;9.948;2024-02-14T02:04:21;8.70;;;5.78;;
77495;SDS011;66600;48.378;9.948;2024-02-14T02:04:51;8.77;;;5.00;;
77495;SDS011;66600;48.378;9.948;2024-02-14T02:05:22;7.40;;;5.47;;
77495;SDS011;66600;48.378;9.948;2024-02-14T02:05:52;7.68;;;5.72;;
77495;SDS011;66600;48.378;9.948;2024-02-14T02:06:24;10.02;;;6.07;;
77495;SDS011;66600;48.378;9.948;2024-02-14T02:06:56;8.70;;;5.50;;
77495;SDS011;66600;48.378;9.948;2024-02-14T02:07:26;9.25;;;6.07;;
77495;SDS011;66600;48.378;9.948;2024-02-14T02:07:57;8.65;;;6.10;;
77495;SDS011;66600;48.378;9.948;2024-02-14T02:08:27;9.15;;;5.70;;
77495;SDS011;66600;48.378;9.948;2024-02-14T02:08:57;9.60;;;5.90;;
77495;SDS011;66600;48.378;9.948;2024-02-14T02:09:28;8.95;;;5.70;;
77495;SDS011;66600;48.378;9.948;2024-02-14T02:09:59;8.43;;;5.50;;
77495;SDS011;66600;48.378;9.948;2024-02-14T02:10:30;8.38;;;5.38;;
77495;SDS011;66600;48.378;9.948;2024-02-14T02:11:00;9.15;;;6.15;;
77495;SDS011;66600;48.378;9.948;2024-02-14T02:11:30;9.35;;;5.88;;
77495;SDS011;66600;48.378;9.948;2024-02-14T02:12:12;8.82;;;5.40;;
77495;SDS011;66600;48.378;9.948;2024-02-14T02:12:43;9.27;;;5.75;;
77495;SDS011;66600;48.378;9.948;2024-02-14T02:13:13;11.57;;;5.85;;
77495;SDS011;66600;48.378;9.948;2024-02-14T02:13:45;8.45;;;5.50;;
77495;SDS011;66600;48.378;9.948;2024-02-14T02:14:16;9.82;;;5.13;;
77495;SDS011;66600;48.378;9.948;2024-02-14T02:14:46;7.00;;;5.18;;
77495;SDS011;66600;48.378;9.948;2024-02-14T02:15:16;7.88;;;5.10;;
77495;SDS011;66600;48.378;9.948;2024-02-14T02:15:47;7.32;;;5.15;;
77495;SDS011;66600;48.378;9.948;2024-02-14T02:16:18;8.20;;;5.55;;
77495;SDS011;66600;48.378;9.948;2024-02-14T02:16:49;8.05;;;5.60;;
77495;SDS011;66600;48.378;9.948;2024-02-14T02:17:19;7.30;;;5.30;;
77495;SDS011;66600;48.378;9.948;2024-02-14T02:17:51;8.23;;;5.50;;
77495;SDS011;66600;48.378;9.948;2024-02-14T02:18:23;8.60;;;5.22;;
77495;SDS011;66600;48.378;9.948;2024-02-14T02:18:55;8.23;;;5.20;;
77495;SDS011;66600;48.378;9.948;2024-02-14T02:19:26;9.27;;;5.28;;
77495;SDS011;66600;48.378;9.948;2024-02-14T02:19:56;7.50;;;5.07;;
77495;SDS011;66600;48.378;9.948;2024-02-14T02:20:27;8.77;;;5.10;;
77495;SDS011;66600;48.378;9.948;2024-02-14T02:20:58;8.35;;;5.70;;
77495;SDS011;66600;48.378;9.948;2024-02-14T02:21:28;9.40;;;5.15;;
77495;SDS011;66600;48.378;9.948;2024-02-14T02:22:00;8.93;;;5.07;;
77495;SDS011;66600;48.378;9.948;2024-02-14T02:22:31;7.93;;;5.10;;
77495;SDS011;66600;48.378;9.948;2024-02-14T02:23:05;10.80;;;5.20;;
77495;SDS011;66600;48.378;9.948;2024-02-14T02:23:35;8.63;;;4.72;;
77495;SDS011;66600;48.378;9.948;2024-02-14T02:24:06;7.55;;;4.70;;
77495;SDS011;66600;48.378;9.948;2024-02-14T02:24:36;9.25;;;5.47;;
77495;SDS011;66600;48.378;9.948;2024-02-14T02:25:07;9.85;;;5.40;;
77495;SDS011;66600;48.378;9.948;2024-02-14T02:25:37;7.95;;;5.22;;
77495;SDS011;66600;48.378;9.948;2024-02-14T02:26:08;7.30;;;4.80;;
77495;SDS011;66600;48.378;9.948;2024-02-14T02:26:38;7.85;;;4.60;;
77495;SDS011;66600;48.378;9.948;2024-02-14T02:27:09;9.15;;;5.15;;
77495;SDS011;66600;48.378;9.948;2024-02-14T02:27:39;6.70;;;4.95;;
77495;SDS011;66600;48.378;9.948;2024-02-14T02:28:10;7.75;;;4.97;;
77495;SDS011;66600;48.378;9.948;2024-02-14T02:28:41;8.15;;;5.07;;
77495;SDS011;66600;48.378;9.948;2024-02-14T02:29:12;12.50;;;5.82;;
77495;SDS011;66600;48.378;9.948;2024-02-14T02:29:42;9.18;;;5.55;;
77495;SDS011;66600;48.378;9.948;2024-02-14T02:30:13;7.55;;;4.78;;
77495;SDS011;66600;48.378;9.948;2024-02-14T02:30:43;6.40;;;4.70;;
77495;SDS011;66600;48.378;9.948;2024-02-14T02:31:16;8.68;;;5.53;;
77495;SDS011;66600;48.378;9.948;2024-02-14T02:31:46;8.07;;;5.30;;
77495;SDS011;66600;48.378;9.948;2024-02-14T02:32:17;7.65;;;5.30;;
77495;SDS011;66600;48.378;9.948;2024-02-14T02:32:48;11.30;;;5.40;;
77495;SDS011;66600;48.378;9.948;2024-02-14T02:33:20;8.90;;;5.30;;
77495;SDS011;66600;48.378;9.948;2024-02-14T02:33:51;8.23;;;5.30;;
77495;SDS011;66600;48.378;9.948;2024-02-14T02:34:22;9.18;;;5.47;;
77495;SDS011;66600;48.378;9.948;2024-02-14T02:34:53;8.70;;;5.30;;
77495;SDS011;66600;48.378;9.948;2024-02-14T02:35:23;9.38;;;5.05;;
77495;SDS011;66600;48.378;9.948;2024-02-14T02:35:54;10.00;;;5.22;;
77495;SDS011;66600;48.378;9.948;2024-02-14T02:36:24;8.15;;;5.55;;
77495;SDS011;66600;48.378;9.948;2024-02-14T02:36:55;8.70;;;5.50;;
77495;SDS011;66600;48.378;9.948;2024-02-14T02:37:26;7.60;;;5.05;;
77495;SDS011;66600;48.378;9.948;2024-02-14T02:38:00;8.48;;;5.70;;
77495;SDS011;66600;48.378;9.948;2024-02-14T02:38:30;10.35;;;5.50;;
77495;SDS011;66600;48.378;9.948;2024-02-14T02:39:01;6.85;;;5.30;;
77495;SDS011;66600;48.378;9.948;2024-02-14T02:39:31;7.93;;;5.32;;
77495;SDS011;66600;48.378;9.948;2024-02-14T02:40:01;10.60;;;5.60;;
77495;SDS011;66600;48.378;9.948;2024-02-14T02:40:32;8.55;;;5.43;;
77495;SDS011;66600;48.378;9.948;2024-02-14T02:41:02;7.57;;;5.00;;
77495;SDS011;66600;48.378;9.948;2024-02-14T02:41:36;9.88;;;5.15;;
77495;SDS011;66600;48.378;9.948;2024-02-14T02:42:06;9.55;;;5.50;;
77495;SDS011;66600;48.378;9.948;2024-02-14T02:42:37;8.15;;;5.40;;
77495;SDS011;66600;48.378;9.948;2024-02-14T02:43:08;9.30;;;5.93;;
77495;SDS011;66600;48.378;9.948;2024-02-14T02:43:40;15.23;;;5.53;;
77495;SDS011;66600;48.378;9.948;2024-02-14T02:44:10;9.40;;;5.10;;
77495;SDS011;66600;48.378;9.948;2024-02-14T02:44:41;9.07;;;5.32;;
77495;SDS011;66600;48.378;9.948;2024-02-14T02:45:12;7.65;;;5.20;;
77495;SDS011;66600;48.378;9.948;2024-02-14T02:45:43;9.23;;;5.18;;
77495;SDS011;66600;48.378;9.948;2024-02-14T02:46:14;8.55;;;5.60;;
77495;SDS011;66600;48.378;9.948;2024-02-14T02:46:44;8.80;;;4.85;;
77495;SDS011;66600;48.378;9.948;2024-02-14T02:47:15;9.00;;;5.25;;
77495;SDS011;66600;48.378;9.948;2024-02-14T02:47:47;8.68;;;5.38;;
77495;SDS011;66600;48.378;9.948;2024-02-14T02:48:17;10.13;;;5.40;;
77495;SDS011;66600;48.378;9.948;2024-02-14T02:48:50;8.10;;;5.60;;
77495;SDS011;66600;48.378;9.948;2024-02-14T02:49:21;9.43;;;5.07;;
77495;SDS011;66600;48.378;9.948;2024-02-14T02:49:52;8.55;;;4.95;;
77495;SDS011;66600;48.378;9.948;2024-02-14T02:50:23;7.65;;;4.90;;
77495;SDS011;66600;48.378;9.948;2024-02-14T02:50:53;7.93;;;5.00;;
77495;SDS011;66600;48.378;9.948;2024-02-14T02:51:24;7.40;;;5.13;;
77495;SDS011;66600;48.378;9.948;2024-02-14T02:51:54;8.45;;;5.00;;
77495;SDS011;66600;48.378;9.948;2024-02-14T02:52:25;8.70;;;5.18;;
77495;SDS011;66600;48.378;9.948;2024-02-14T02:52:55;6.00;;;4.50;;
77495;SDS011;66600;48.378;9.948;2024-02-14T02:53:27;6.72;;;4.70;;
77495;SDS011;66600;48.378;9.948;2024-02-14T02:53:57;6.88;;;4.72;;
77495;SDS011;66600;48.378;9.948;2024-02-14T02:54:27;7.97;;;5.00;;
77495;SDS011;66600;48.378;9.948;2024-02-14T02:54:58;8.98;;;4.95;;
77495;SDS011;66600;48.378;9.948;2024-02-14T02:55:28;7.25;;;4.93;;
77495;SDS011;66600;48.378;9.948;2024-02-14T02:55:58;6.60;;;4.97;;
77495;SDS011;66600;48.378;9.948;2024-02-14T02:56:29;8.52;;;5.30;;
77495;SDS011;66600;48.378;9.948;2024-02-14T02:57:00;7.03;;;5.30;;
77495;SDS011;66600;48.378;9.948;2024-02-14T02:57:33;7.63;;;4.95;;
77495;SDS011;66600;48.378;9.948;2024-02-14T02:58:06;8.93;;;5.22;;
77495;SDS011;66600;48.378;9.948;2024-02-14T02:58:37;9.70;;;5.32;;
77495;SDS011;66600;48.378;9.948;2024-02-14T02:59:08;10.18;;;5.47;;
77495;SDS011;66600;48.378;9.948;2024-02-14T02:59:38;9.38;;;5.45;;
77495;SDS011;66600;48.378;9.948;2024-02-14T03:00:13;7.50;;;5.15;;
77495;SDS011;66600;48.378;9.948;2024-02-14T03:00:43;8.90;;;4.90;;
77495;SDS011;66600;48.378;9.948;2024-02-14T03:01:14;9.30;;;5.45;;
77495;SDS011;66600;48.378;9.948;2024-02-14T03:01:44;7.45;;;5.15;;
77495;SDS011;66600;48.378;9.948;2024-02-14T03:02:14;7.90;;;4.90;;
77495;SDS011;66600;48.378;9.948;2024-02-14T03:02:45;9.20;;;5.13;;
77495;SDS011;66600;48.378;9.948;2024-02-14T03:03:16;7.43;;;4.90;;
77495;SDS011;66600;48.378;9.948;2024-02-14T03:03:46;8.48;;;5.20;;
77495;SDS011;66600;48.378;9.948;2024-02-14T03:04:16;8.73;;;5.50;;
77495;SDS011;66600;48.378;9.948;2024-02-14T03:04:47;8.02;;;5.30;;
77495;SDS011;66600;48.378;9.948;2024-02-14T03:05:17;6.70;;;5.38;;